createdAt,value
2023-10-26T00:00:59.766Z,95.3
2023-10-26T00:16:33.880Z,95.1
2023-10-26T00:32:08.289Z,94.8
2023-10-26T00:47:42.563Z,95.1
2023-10-26T01:03:17.141Z,95.5
2023-10-26T01:18:51.934Z,95.2
2023-10-26T01:34:26.392Z,95.5
2023-10-26T01:50:00.432Z,95.6
2023-10-26T02:05:34.864Z,95.6
2023-10-26T02:21:09.303Z,95.2
2023-10-26T02:36:43.587Z,90.2
2023-10-26T02:52:17.640Z,91.9
2023-10-26T03:07:51.819Z,92.3
2023-10-26T03:23:26.107Z,92
2023-10-26T03:39:00.317Z,87.6
2023-10-26T03:54:34.753Z,88.6
2023-10-26T04:10:08.940Z,89
2023-10-26T04:25:56.063Z,89.7
2023-10-26T04:41:30.153Z,90.2
2023-10-26T04:57:04.297Z,90.4
2023-10-26T05:12:38.448Z,89.2
2023-10-26T05:28:12.475Z,88
2023-10-26T05:43:46.521Z,89.1
2023-10-26T05:59:20.575Z,87.3
2023-10-26T06:14:54.648Z,87.9
2023-10-26T06:30:29.060Z,88.4
2023-10-26T06:46:03.543Z,86.9
2023-10-26T07:02:12.555Z,86.1
2023-10-26T07:17:46.763Z,85.2
2023-10-26T07:33:21.329Z,81.4
2023-10-26T07:48:55.591Z,83.1
2023-10-26T08:04:29.826Z,82.9
2023-10-26T08:20:04.508Z,83
2023-10-26T08:35:38.886Z,81.2
2023-10-26T08:51:12.979Z,79.4
2023-10-26T09:06:47.011Z,73.2
2023-10-26T09:22:21.084Z,76
2023-10-26T09:37:55.913Z,78.2
2023-10-26T09:53:30.230Z,76.8
2023-10-26T10:09:04.914Z,76.4
2023-10-26T10:24:39.413Z,78.1
2023-10-26T10:40:13.786Z,78.4
2023-10-26T10:55:48.222Z,79.8
2023-10-26T11:11:22.629Z,80.8
2023-10-26T11:26:57.164Z,75.4
2023-10-26T11:42:31.733Z,74.5
2023-10-26T11:58:06.496Z,75.4
2023-10-26T12:13:41.150Z,74.6
2023-10-26T12:29:15.734Z,73.5
2023-10-26T12:44:50.218Z,72.5
2023-10-26T13:00:24.669Z,72.9
2023-10-26T13:15:59.525Z,73.2
2023-10-26T13:31:34.448Z,74.3
2023-10-26T13:47:09.009Z,72.1
2023-10-26T14:02:43.729Z,71.5
2023-10-26T14:18:18.678Z,72
2023-10-26T14:33:56.325Z,72.2
2023-10-26T14:49:31.295Z,76.2
2023-10-26T15:05:06.175Z,78.3
2023-10-26T15:20:40.729Z,79
2023-10-26T15:36:15.089Z,80.8
2023-10-26T15:51:49.920Z,81.7
2023-10-26T16:07:24.534Z,80.7
2023-10-26T16:22:59.028Z,82.5
2023-10-26T16:38:33.548Z,82.6
2023-10-26T16:54:08.080Z,83.5
2023-10-26T17:09:43.062Z,84
2023-10-26T17:25:17.987Z,84
2023-10-26T17:40:52.691Z,86.2
2023-10-26T17:56:27.223Z,87.4
2023-10-26T18:12:01.708Z,85.9
2023-10-26T18:27:36.367Z,86.6
2023-10-26T18:43:10.913Z,86.9
2023-10-26T18:58:45.536Z,88
2023-10-26T19:14:20.310Z,88
2023-10-26T19:29:54.859Z,88.5
2023-10-26T19:45:29.548Z,89
2023-10-26T20:01:04.251Z,89.1
2023-10-26T20:16:40.871Z,89.1
2023-10-26T20:32:15.779Z,91.5
2023-10-26T20:47:50.427Z,89.6
2023-10-26T21:03:24.989Z,88.9
2023-10-26T21:18:59.679Z,90
2023-10-26T21:34:34.333Z,90
2023-10-26T21:50:09.123Z,90.5
2023-10-26T22:05:43.720Z,90.6
2023-10-26T22:21:18.189Z,90.7
2023-10-26T22:36:52.889Z,91.2
2023-10-26T22:52:27.520Z,92.2
2023-10-26T23:08:02.044Z,92.6
2023-10-26T23:23:36.677Z,92.2
2023-10-26T23:39:11.213Z,92.5
2023-10-26T23:54:45.710Z,93.3
